Time;durP1;ratioP1;P1;durP2;ratioP2;P2;SDS_P1;SDS_P2;PMS_P1;PMS_P2;Temp;Humidity;BMP_temperature;BMP_pressure;BME280_temperature;BME280_humidity;BME280_pressure;Samples;Min_cycle;Max_cycle;Signal;HPM_P1;HPM_P2
2022/11/19 08:50:00;;;;;;;13.40;8.82;;;;;;;-140.72;100.00;53283.78;5145812;27;20405;-70
2022/11/19 08:52:28;;;;;;;13.93;10.07;;;;;;;-140.72;100.00;53271.59;5127760;28;20118;-71
2022/11/19 08:54:54;;;;;;;21.35;10.80;;;;;;;-140.72;100.00;53271.59;5122590;28;20084;-71
2022/11/19 08:57:19;;;;;;;15.35;9.18;;;;;;;-140.72;100.00;53295.94;5114047;28;20035;-71
2022/11/19 08:59:44;;;;;;;17.42;10.73;;;;;;;-140.72;100.00;53285.81;5105919;28;20028;-70
2022/11/19 09:02:10;;;;;;;16.67;10.25;;;;;;;-140.72;100.00;53275.66;5106046;28;20145;-70
2022/11/19 09:04:40;;;;;;;16.02;9.65;;;;;;;-140.72;100.00;53308.13;5116000;28;20423;-69
2022/11/19 09:07:05;;;;;;;;;;;;;;;-140.72;100.00;53261.44;5112817;28;20361;-69
2022/11/19 09:09:34;;;;;;;15.15;9.60;;;;;;;-140.72;100.00;53293.91;5114439;28;19919;-72
2022/11/19 09:11:59;;;;;;;20.45;10.68;;;;;;;-140.72;100.00;53275.66;5110116;28;20043;-74
2022/11/19 09:14:25;;;;;;;13.45;8.40;;;;;;;-140.72;100.00;53293.91;5108771;28;20031;-70
2022/11/19 09:16:50;;;;;;;14.63;9.38;;;;;;;-140.72;100.00;53261.44;5121358;28;20129;-69
2022/11/19 09:19:16;;;;;;;16.63;9.15;;;;;;;-140.72;100.00;53233.03;5112866;28;20028;-69
2022/11/19 09:21:41;;;;;;;18.17;9.00;;;;;;;-140.72;100.00;53251.31;5113201;28;20035;-69
2022/11/19 09:24:07;;;;;;;15.23;11.13;;;;;;;-140.72;100.00;53291.88;5120324;28;20413;-70
2022/11/19 09:26:32;;;;;;;19.63;9.95;;;;;;;-140.72;100.00;53312.19;5115825;28;20414;-71
2022/11/19 09:28:57;;;;;;;19.48;10.52;;;;;;;-140.72;100.00;53255.34;5122577;28;20503;-75
2022/11/19 09:31:23;;;;;;;17.55;9.27;;;;;;;-140.72;100.00;53253.31;5114356;28;20486;-71
2022/11/19 09:33:50;;;;;;;15.70;9.20;;;;;;;-140.72;100.00;53235.06;5126486;28;20041;-71
2022/11/19 09:36:17;;;;;;;16.92;10.55;;;;;;;-140.72;100.00;53222.88;5118673;28;20054;-72
2022/11/19 09:38:42;;;;;;;19.33;10.65;;;;;;;-140.72;100.00;53255.34;5119349;28;20031;-73
2022/11/19 09:41:17;;;;;;;15.48;9.73;;;;;;;-140.72;100.00;53291.88;5114894;28;20274;-71
2022/11/19 09:43:45;;;;;;;18.25;10.25;;;;;;;-140.72;100.00;53231.00;5119098;28;20396;-73
2022/11/19 09:46:20;;;;;;;20.25;10.43;;;;;;;-140.72;100.00;53259.41;5115726;28;20035;-75
2022/11/19 09:48:49;;;;;;;19.10;10.00;;;;;;;-140.72;100.00;53231.00;5118502;28;20043;-74
2022/11/19 09:51:20;;;;;;;14.02;9.00;;;;;;;-140.72;100.00;53214.78;5108445;28;20110;-71
2022/11/19 09:54:06;;;;;;;13.60;8.85;;;;;;;-140.72;100.00;53235.06;5109691;28;20020;-72
2022/11/19 09:56:42;;;;;;;15.32;10.50;;;;;;;-140.72;100.00;53247.25;5111556;28;20063;-70
2022/11/19 09:59:35;;;;;;;16.20;9.38;;;;;;;-140.72;100.00;53233.03;5101858;28;20536;-72
2022/11/19 10:02:02;;;;;;;19.38;9.93;;;;;;;-140.72;100.00;53251.31;5103216;28;20480;-71
2022/11/19 10:04:32;;;;;;;12.27;9.00;;;;;;;-140.72;100.00;53253.31;5100244;28;20036;-73
2022/11/19 10:07:09;;;;;;;20.20;10.30;;;;;;;-140.72;100.00;53231.00;5105849;28;20034;-71
2022/11/19 10:09:43;;;;;;;14.18;9.55;;;;;;;-140.72;100.00;53243.19;5095068;28;20035;-75
2022/11/19 10:12:26;;;;;;;14.02;9.55;;;;;;;-140.72;100.00;53233.03;5106796;28;20028;-71
2022/11/19 10:15:15;;;;;;;17.10;9.10;;;;;;;-140.72;100.00;53228.97;5109010;28;20031;-71
2022/11/19 10:17:46;;;;;;;13.98;9.02;;;;;;;-140.72;100.00;53249.28;5102283;28;20027;-74
2022/11/19 10:20:20;;;;;;;16.88;10.02;;;;;;;-140.72;100.00;53267.53;5108447;28;20024;-71
2022/11/19 10:23:12;;;;;;;19.20;9.32;;;;;;;-140.72;100.00;53243.19;5109918;28;20103;-71
2022/11/19 10:25:48;;;;;;;17.85;11.18;;;;;;;-140.72;100.00;53245.22;5099885;28;20388;-73
2022/11/19 10:28:23;;;;;;;16.60;8.88;;;;;;;-140.72;100.00;53226.94;5109437;28;20436;-73
2022/11/19 10:30:58;;;;;;;19.00;9.75;;;;;;;-140.72;100.00;53208.69;5097853;28;20460;-72
2022/11/19 10:33:34;;;;;;;16.08;9.88;;;;;;;-140.72;100.00;53198.53;5103203;28;20028;-71
2022/11/19 10:36:07;;;;;;;13.55;9.20;;;;;;;-140.72;100.00;53267.53;5110257;28;20384;-71
2022/11/19 10:38:43;;;;;;;15.63;10.52;;;;;;;-140.72;100.00;53271.59;5088638;28;20523;-74
2022/11/19 10:41:16;;;;;;;18.73;9.27;;;;;;;-140.72;100.00;53255.34;5094366;28;20085;-72
2022/11/19 10:43:55;;;;;;;15.82;9.65;;;;;;;-140.72;100.00;53190.41;5093806;28;20028;-73
2022/11/19 10:46:24;;;;;;;14.73;9.88;;;;;;;-140.72;100.00;53255.34;5097171;28;20376;-73
2022/11/19 10:48:53;;;;;;;16.13;9.18;;;;;;;-140.72;100.00;53267.53;5096690;28;20052;-72
2022/11/19 10:51:32;;;;;;;17.17;9.15;;;;;;;-140.72;100.00;53251.31;5110836;28;20043;-71
2022/11/19 10:54:01;;;;;;;14.80;9.82;;;;;;;-140.72;100.00;53255.34;5104764;28;20034;-74
2022/11/19 10:56:42;;;;;;;16.67;10.17;;;;;;;-140.72;100.00;53279.72;5111221;28;20032;-71
2022/11/19 10:59:16;;;;;;;14.23;9.05;;;;;;;-140.72;100.00;53237.09;5095766;28;20702;-73
2022/11/19 11:01:44;;;;;;;14.68;9.05;;;;;;;-140.72;100.00;53239.13;5094498;28;20052;-74
2022/11/19 11:04:28;;;;;;;12.10;8.23;;;;;;;-140.72;100.00;53226.94;5104485;28;20046;-72
2022/11/19 11:07:02;;;;;;;14.00;9.30;;;;;;;-140.72;100.00;53231.00;5104089;28;20040;-71
2022/11/19 11:09:36;;;;;;;16.00;9.20;;;;;;;-140.72;100.00;53239.13;5091895;28;20028;-73
2022/11/19 11:15:13;;;;;;;13.63;9.35;;;;;;;-140.72;100.00;53214.78;5097012;28;20039;-75
2022/11/19 11:17:41;;;;;;;16.30;10.65;;;;;;;-140.72;100.00;53251.31;5099126;28;20024;-73
2022/11/19 11:20:15;;;;;;;14.30;8.90;;;;;;;-140.72;100.00;53226.94;5100756;28;20445;-72
2022/11/19 11:22:42;;;;;;;14.63;9.57;;;;;;;-140.72;100.00;53222.88;5099327;28;20606;-71
2022/11/19 11:25:19;;;;;;;14.45;9.32;;;;;;;-140.72;100.00;53243.19;5093492;28;20075;-72
2022/11/19 11:27:45;;;;;;;13.98;9.05;;;;;;;-140.72;100.00;53241.16;5096943;28;20100;-72
2022/11/19 11:30:10;;;;;;;14.48;9.75;;;;;;;-140.72;100.00;53261.44;5101970;28;20071;-73
2022/11/19 11:32:36;;;;;;;14.80;9.68;;;;;;;-140.72;100.00;53231.00;5105622;28;20054;-70
2022/11/19 11:35:02;;;;;;;20.58;9.60;;;;;;;-140.72;100.00;53231.00;5093685;28;20059;-73
2022/11/19 11:37:27;;;;;;;15.68;9.35;;;;;;;-140.72;100.00;53231.00;5110536;28;20543;-72
2022/11/19 11:39:54;;;;;;;16.40;8.02;;;;;;;-140.72;100.00;53206.66;5085894;28;20028;-72
2022/11/19 11:42:22;;;;;;;15.77;9.85;;;;;;;-140.72;100.00;53255.34;5102132;28;20107;-73
2022/11/19 11:44:53;;;;;;;15.40;9.05;;;;;;;-140.72;100.00;53263.47;5093994;28;20028;-73
2022/11/19 11:47:24;;;;;;;15.40;10.57;;;;;;;-140.72;100.00;53222.88;5096686;28;20015;-74
2022/11/19 11:50:22;;;;;;;13.00;8.75;;;;;;;-140.72;100.00;53255.34;5105998;28;20462;-73
2022/11/19 11:52:50;;;;;;;14.50;8.05;;;;;;;-140.72;100.00;53216.78;5080129;28;20124;-72
2022/11/19 11:55:22;;;;;;;17.05;8.48;;;;;;;-140.72;100.00;53218.81;5102766;28;20031;-73
2022/11/19 11:57:54;;;;;;;13.43;8.10;;;;;;;-140.72;100.00;53255.34;5093202;28;20020;-73
2022/11/19 12:00:27;;;;;;;13.02;7.93;;;;;;;-140.72;100.00;53174.19;5100471;28;20111;-73
2022/11/19 12:03:10;;;;;;;12.18;8.02;;;;;;;-140.72;100.00;53231.00;5109807;28;20034;-73
2022/11/19 12:05:44;;;;;;;11.63;8.25;;;;;;;-140.72;100.00;53222.88;5106537;28;20035;-73
2022/11/19 12:08:32;;;;;;;12.45;7.60;;;;;;;-140.72;100.00;53212.75;5100616;28;20028;-71
2022/11/19 12:11:23;;;;;;;11.98;8.82;;;;;;;-140.72;100.00;53241.16;5086983;28;20024;-72
2022/11/19 12:14:02;;;;;;;11.50;6.90;;;;;;;-140.72;100.00;53216.78;5088659;28;20027;-71
2022/11/19 12:17:05;;;;;;;11.93;7.43;;;;;;;-140.72;100.00;53184.31;5098461;28;20027;-74
2022/11/19 12:19:49;;;;;;;11.77;8.88;;;;;;;-140.72;100.00;53214.78;5106847;28;20048;-72
2022/11/19 12:22:14;;;;;;;12.25;7.85;;;;;;;-140.72;100.00;53237.09;5098617;28;20043;-72
2022/11/19 12:24:58;;;;;;;13.40;7.38;;;;;;;-140.72;100.00;53182.28;5092636;28;20113;-71
2022/11/19 12:27:45;;;;;;;11.35;6.32;;;;;;;-140.72;100.00;53200.56;5098770;28;20482;-71
2022/11/19 12:30:28;;;;;;;12.55;7.15;;;;;;;-140.72;100.00;53245.22;5093745;28;20028;-74
2022/11/19 12:33:00;;;;;;;12.63;6.95;;;;;;;-140.72;100.00;53237.09;5103544;28;20035;-71
2022/11/19 12:35:57;;;;;;;9.55;5.63;;;;;;;-140.72;100.00;53204.63;5099810;28;20028;-71
2022/11/19 12:38:51;;;;;;;13.65;7.07;;;;;;;-140.72;100.00;53196.50;5078938;28;20120;-72
2022/11/19 12:41:54;;;;;;;10.35;6.75;;;;;;;-140.72;100.00;53194.47;5099624;28;20024;-72
2022/11/19 12:44:31;;;;;;;9.88;6.45;;;;;;;-140.72;100.00;53263.47;5095534;28;20054;-72
2022/11/19 12:47:04;;;;;;;11.65;6.43;;;;;;;-140.72;100.00;53279.72;5098622;28;20107;-72
2022/11/19 12:49:52;;;;;;;10.65;7.15;;;;;;;-140.72;100.00;53222.88;5090612;28;20039;-72
2022/11/19 12:52:39;;;;;;;11.10;5.93;;;;;;;-140.72;100.00;53204.63;5096798;28;20540;-74
2022/11/19 12:55:24;;;;;;;11.77;7.43;;;;;;;-140.72;100.00;53243.19;5097882;28;20031;-74
2022/11/19 12:57:53;;;;;;;13.70;7.70;;;;;;;-140.72;100.00;53214.78;5099812;28;20144;-72
2022/11/19 13:00:21;;;;;;;9.68;6.43;;;;;;;-140.72;100.00;53214.78;5091065;28;20660;-72
2022/11/19 13:02:57;;;;;;;11.50;6.70;;;;;;;-140.72;100.00;53243.19;5092971;28;20032;-72
2022/11/19 13:05:33;;;;;;;8.82;6.20;;;;;;;-140.72;100.00;53206.66;5090028;28;20113;-75
2022/11/19 13:08:31;;;;;;;13.60;6.70;;;;;;;-140.72;100.00;53190.41;5099685;28;20118;-71
2022/11/19 13:11:18;;;;;;;12.13;6.30;;;;;;;-140.72;100.00;53200.56;5095806;28;20095;-73
2022/11/19 13:13:49;;;;;;;10.73;7.53;;;;;;;-140.72;100.00;53239.13;5100364;28;20073;-72
2022/11/19 13:16:18;;;;;;;11.65;6.85;;;;;;;-140.72;100.00;53224.91;5097166;28;20023;-72
2022/11/19 13:18:51;;;;;;;9.70;6.00;;;;;;;-140.72;100.00;53243.19;5105347;28;20032;-73
2022/11/19 13:21:38;;;;;;;10.57;6.25;;;;;;;-140.72;100.00;53190.41;5089603;28;20074;-72
2022/11/19 13:24:31;;;;;;;11.00;6.88;;;;;;;-140.72;100.00;53214.78;5096798;28;20038;-72
2022/11/19 13:27:02;;;;;;;10.85;5.65;;;;;;;-140.72;100.00;53287.84;5101533;28;20031;-72
2022/11/19 13:29:55;;;;;;;8.98;5.55;;;;;;;-140.72;100.00;53206.66;5107877;28;20077;-72
2022/11/19 13:33:02;;;;;;;14.27;6.53;;;;;;;-140.72;100.00;53202.59;5097055;28;20066;-70
2022/11/19 13:35:49;;;;;;;12.05;6.82;;;;;;;-140.72;100.00;53210.72;5005844;28;20056;-70
2022/11/19 13:38:31;;;;;;;10.70;6.47;;;;;;;-140.72;100.00;53208.69;5009109;28;20088;-70
2022/11/19 13:41:05;;;;;;;9.45;5.40;;;;;;;-140.72;100.00;53237.09;5007289;28;20041;-75
2022/11/19 13:46:20;;;;;;;9.07;6.05;;;;;;;-140.72;100.00;53200.56;5031030;28;20133;-70
2022/11/19 13:48:54;;;;;;;10.27;5.65;;;;;;;-140.72;100.00;53210.72;5103634;28;20043;-72
2022/11/19 13:51:28;;;;;;;11.50;6.75;;;;;;;-140.72;100.00;53226.94;5101882;28;20103;-70
2022/11/19 13:53:56;;;;;;;9.60;5.88;;;;;;;-140.72;100.00;53226.94;5096939;28;20028;-71
2022/11/19 13:56:22;;;;;;;7.65;5.28;;;;;;;-140.72;100.00;53214.78;5108872;28;20088;-74
2022/11/19 13:58:53;;;;;;;8.88;5.53;;;;;;;-140.72;100.00;53190.41;5099507;28;20028;-74
2022/11/19 14:01:40;;;;;;;7.72;5.30;;;;;;;-140.72;100.00;53237.09;5103237;28;20023;-72
2022/11/19 14:04:23;;;;;;;7.50;5.72;;;;;;;-140.72;100.00;53202.59;5096884;28;20077;-72
2022/11/19 14:07:25;;;;;;;9.80;5.68;;;;;;;-140.72;100.00;53186.34;5094926;28;20078;-72
2022/11/19 14:10:00;;;;;;;8.98;4.93;;;;;;;-140.72;100.00;53243.19;5101358;28;20027;-72
2022/11/19 14:12:31;;;;;;;8.65;5.07;;;;;;;-140.72;100.00;53255.34;5098679;28;20493;-76
2022/11/19 14:26:40;;;;;;;8.18;5.82;;;;;;;-140.72;100.00;53206.66;5094637;28;20055;-72
2022/11/19 14:29:17;;;;;;;7.30;4.63;;;;;;;-140.72;100.00;53218.81;5104004;28;20054;-72
2022/11/19 14:32:07;;;;;;;8.52;5.70;;;;;;;-140.72;100.00;53206.66;5099554;28;20224;-72
2022/11/19 14:34:40;;;;;;;6.43;4.53;;;;;;;-140.72;100.00;53198.53;5102643;28;20431;-72
2022/11/19 14:37:21;;;;;;;8.25;4.78;;;;;;;-140.72;100.00;53200.56;5096231;28;20107;-71
2022/11/19 14:39:55;;;;;;;11.32;5.97;;;;;;;-140.72;100.00;53202.59;5091198;28;20046;-72
2022/11/19 14:42:21;;;;;;;9.40;5.88;;;;;;;-140.72;100.00;53214.78;5093459;28;20127;-72
2022/11/19 14:45:02;;;;;;;8.27;5.53;;;;;;;-140.72;100.00;53210.72;5092179;28;20406;-72
2022/11/19 14:47:36;;;;;;;8.30;6.03;;;;;;;-140.72;100.00;53188.38;5104186;28;20046;-76
2022/11/19 14:50:21;;;;;;;10.35;6.90;;;;;;;-140.72;100.00;53237.09;5102806;28;20044;-71
2022/11/19 14:52:59;;;;;;;7.00;4.95;;;;;;;-140.72;100.00;53216.78;5091833;28;20110;-72
2022/11/19 14:55:31;;;;;;;7.35;5.55;;;;;;;-140.72;100.00;53216.78;5100865;28;20028;-73
2022/11/19 14:58:18;;;;;;;9.65;5.45;;;;;;;-140.72;100.00;53243.19;5101966;28;20028;-71
2022/11/19 15:00:44;;;;;;;9.70;6.28;;;;;;;-140.72;100.00;53235.06;5106535;28;20387;-73
2022/11/19 15:03:25;;;;;;;10.07;6.05;;;;;;;-140.72;100.00;53263.47;5104182;28;20111;-74
2022/11/19 15:05:51;;;;;;;7.22;5.40;;;;;;;-140.72;100.00;53235.06;5095557;28;20028;-71
2022/11/19 15:08:16;;;;;;;8.32;4.35;;;;;;;-140.72;100.00;53194.47;5096815;28;20034;-72
2022/11/19 15:11:00;;;;;;;9.02;6.50;;;;;;;-140.72;100.00;53241.16;5098590;28;20119;-71
2022/11/19 15:13:28;;;;;;;11.30;6.13;;;;;;;-140.72;100.00;53245.22;5094098;28;20102;-72
2022/11/19 15:16:05;;;;;;;9.95;5.95;;;;;;;-140.72;100.00;53204.63;5103970;28;20024;-72
2022/11/19 15:18:33;;;;;;;8.05;5.80;;;;;;;-140.72;100.00;53233.03;5107604;28;20477;-72
2022/11/19 15:21:13;;;;;;;11.82;4.90;;;;;;;-140.72;100.00;53206.66;5101624;28;20063;-72
2022/11/19 15:23:55;;;;;;;8.10;4.88;;;;;;;-140.72;100.00;53241.16;5107429;28;20043;-72
2022/11/19 15:26:32;;;;;;;7.63;4.78;;;;;;;-140.72;100.00;53231.00;5101390;28;20046;-72
2022/11/19 15:29:24;;;;;;;9.05;6.00;;;;;;;-140.72;100.00;53228.97;5098073;28;20529;-75
2022/11/19 15:32:23;;;;;;;8.75;5.18;;;;;;;-140.72;100.00;53224.91;5102606;28;20024;-72
2022/11/19 15:35:16;;;;;;;6.97;4.90;;;;;;;-140.72;100.00;53224.91;5090964;28;20767;-73
2022/11/19 15:37:54;;;;;;;10.05;6.97;;;;;;;-140.72;100.00;53243.19;5102525;28;20071;-72
2022/11/19 15:40:29;;;;;;;8.50;5.55;;;;;;;-140.72;100.00;53267.53;5102569;28;20036;-73
2022/11/19 15:43:11;;;;;;;7.53;4.93;;;;;;;-140.72;100.00;53263.47;5098281;28;20107;-72
2022/11/19 15:45:51;;;;;;;9.15;5.60;;;;;;;-140.72;100.00;53228.97;5100638;28;20366;-71
2022/11/19 15:48:40;;;;;;;6.05;4.93;;;;;;;-140.72;100.00;53257.38;5089391;28;20044;-72
2022/11/19 15:51:12;;;;;;;9.25;6.03;;;;;;;-140.72;100.00;53239.13;5096663;28;20507;-71
2022/11/19 15:53:56;;;;;;;8.50;5.65;;;;;;;-140.72;100.00;53214.78;5093836;28;20103;-71
2022/11/19 15:56:22;;;;;;;6.95;4.90;;;;;;;-140.72;100.00;53247.25;5102320;28;20063;-73
2022/11/19 15:58:48;;;;;;;6.00;4.65;;;;;;;-140.72;100.00;53235.06;5099883;28;20023;-72
2022/11/19 16:01:23;;;;;;;7.38;4.88;;;;;;;-140.72;100.00;53231.00;5090562;28;20028;-73
2022/11/19 16:03:50;;;;;;;7.95;5.07;;;;;;;-140.72;100.00;53224.91;5094297;28;20028;-70
2022/11/19 16:06:25;;;;;;;9.50;5.18;;;;;;;-140.72;100.00;53222.88;5095574;28;20069;-72
2022/11/19 16:08:53;;;;;;;5.65;3.97;;;;;;;-140.72;100.00;53271.59;5093903;28;20381;-71
2022/11/19 16:17:36;;;;;;;7.57;4.45;;;;;;;-140.72;100.00;53273.63;5095199;28;20058;-71
2022/11/19 16:20:04;;;;;;;6.90;5.13;;;;;;;-140.72;100.00;53228.97;5099690;28;20541;-72
2022/11/19 16:22:36;;;;;;;8.27;5.63;;;;;;;-140.72;100.00;53216.78;5094652;28;20077;-73
2022/11/19 16:25:22;;;;;;;7.75;5.18;;;;;;;-140.72;100.00;53257.38;5089626;28;20027;-73
2022/11/19 16:27:47;;;;;;;8.05;4.68;;;;;;;-140.72;100.00;53261.44;5098851;28;20457;-73
2022/11/19 16:30:48;;;;;;;7.15;4.03;;;;;;;-140.72;100.00;53239.13;5088812;28;20038;-73
2022/11/19 16:33:18;;;;;;;8.35;5.68;;;;;;;-140.72;100.00;53214.78;5099450;28;20031;-72
2022/11/19 16:35:43;;;;;;;12.02;7.13;;;;;;;-140.72;100.00;53202.59;5095743;28;20668;-72
2022/11/19 16:38:26;;;;;;;8.38;4.65;;;;;;;-140.72;100.00;53267.53;5088383;28;20066;-73
2022/11/19 16:43:41;;;;;;;8.57;5.65;;;;;;;-140.72;100.00;53235.06;5090298;28;20061;-72
2022/11/19 16:46:11;;;;;;;9.80;5.63;;;;;;;-140.72;100.00;53243.19;5095028;28;20377;-74
2022/11/19 16:48:49;;;;;;;7.50;5.28;;;;;;;-140.72;100.00;53226.94;5089574;28;20392;-73
2022/11/19 16:51:33;;;;;;;10.75;5.45;;;;;;;-140.72;100.00;53247.25;5105659;28;20038;-74
2022/11/19 16:54:01;;;;;;;9.30;4.72;;;;;;;-140.72;100.00;53228.97;5098605;28;20115;-74
2022/11/19 16:56:36;;;;;;;9.93;5.18;;;;;;;-140.72;100.00;53267.53;5098212;28;20036;-74
2022/11/19 16:59:05;;;;;;;9.00;5.50;;;;;;;-140.72;100.00;53228.97;5089214;28;20109;-75
2022/11/19 17:01:36;;;;;;;9.20;5.43;;;;;;;-140.72;100.00;53212.75;5114360;28;20114;-74
2022/11/19 17:04:06;;;;;;;12.27;6.03;;;;;;;-140.72;100.00;53271.59;5109537;28;20032;-74
2022/11/19 17:06:35;;;;;;;8.27;5.10;;;;;;;-140.72;100.00;53279.72;5102599;28;20031;-73
2022/11/19 17:09:03;;;;;;;7.32;5.25;;;;;;;-140.72;100.00;53198.53;5114148;28;20461;-74
2022/11/19 17:14:34;;;;;;;7.88;4.93;;;;;;;-140.72;100.00;53271.59;5098629;28;20035;-74
2022/11/19 17:17:01;;;;;;;7.63;4.50;;;;;;;-140.72;100.00;53271.59;5103004;28;20027;-74
2022/11/19 17:19:34;;;;;;;6.70;4.00;;;;;;;-140.72;100.00;53212.75;5097659;28;20119;-73
2022/11/19 17:22:12;;;;;;;7.85;4.80;;;;;;;-140.72;100.00;53243.19;5099829;28;20028;-73
2022/11/19 17:24:43;;;;;;;8.85;4.63;;;;;;;-140.72;100.00;53237.09;5097915;28;20354;-76
2022/11/19 17:27:25;;;;;;;10.88;4.35;;;;;;;-140.72;100.00;53247.25;5093634;28;20027;-74
2022/11/19 17:30:08;;;;;;;5.80;3.63;;;;;;;-140.72;100.00;53222.88;5103429;28;20062;-77
2022/11/19 17:33:03;;;;;;;7.80;4.47;;;;;;;-140.72;100.00;53245.22;5107673;28;20036;-74
2022/11/19 17:35:37;;;;;;;6.00;3.72;;;;;;;-140.72;100.00;53261.44;5078672;28;20078;-73
2022/11/19 17:38:27;;;;;;;7.63;3.90;;;;;;;-140.72;100.00;53237.09;5100345;28;20023;-74
2022/11/19 17:40:57;;;;;;;6.15;4.22;;;;;;;-140.72;100.00;53228.97;5109661;28;20031;-76
2022/11/19 17:46:17;;;;;;;11.43;4.72;;;;;;;-140.72;100.00;53241.16;5099247;28;20105;-74
2022/11/19 17:48:44;;;;;;;5.25;4.28;;;;;;;-140.72;100.00;53273.63;5100805;28;20087;-74
2022/11/19 17:51:18;;;;;;;8.88;5.40;;;;;;;-140.72;100.00;53214.78;5101159;28;20127;-73
2022/11/19 17:53:44;;;;;;;9.13;4.63;;;;;;;-140.72;100.00;53259.41;5102593;28;20124;-74
2022/11/19 17:56:19;;;;;;;8.80;5.05;;;;;;;-140.72;100.00;53263.47;5108564;28;20032;-74
2022/11/19 17:58:47;;;;;;;7.65;5.35;;;;;;;-140.72;100.00;53263.47;5113200;28;20097;-74
2022/11/19 18:01:13;;;;;;;12.85;3.33;;;;;;;-140.72;100.00;53255.34;5100358;28;20110;-73
2022/11/19 18:03:39;;;;;;;8.93;5.10;;;;;;;-140.72;100.00;53271.59;5106310;28;20036;-75
2022/11/19 18:06:07;;;;;;;6.05;3.83;;;;;;;-140.72;100.00;53231.00;5102693;28;20035;-74
2022/11/19 18:08:35;;;;;;;7.13;3.85;;;;;;;-140.72;100.00;53245.22;5097252;28;20020;-74
2022/11/19 18:11:04;;;;;;;7.35;4.22;;;;;;;-140.72;100.00;53251.31;5106858;28;20388;-77
2022/11/19 18:13:32;;;;;;;8.57;4.47;;;;;;;-140.72;100.00;53263.47;5107778;28;20031;-74
2022/11/19 18:15:57;;;;;;;8.32;4.70;;;;;;;-140.72;100.00;53302.03;5091496;28;20024;-75
2022/11/19 18:18:23;;;;;;;6.05;3.78;;;;;;;-140.72;100.00;53293.91;5111502;28;20053;-74
2022/11/19 18:20:49;;;;;;;5.88;3.88;;;;;;;-140.72;100.00;53253.31;5102643;28;20031;-76
2022/11/19 18:23:17;;;;;;;7.00;4.25;;;;;;;-140.72;100.00;53316.25;5106325;28;20392;-76
2022/11/19 18:25:43;;;;;;;9.45;4.80;;;;;;;-140.72;100.00;53312.19;5106049;28;20455;-75
2022/11/19 18:28:09;;;;;;;5.78;4.18;;;;;;;-140.72;100.00;53316.25;5105849;28;20060;-74
2022/11/19 18:30:34;;;;;;;9.88;4.65;;;;;;;-140.72;100.00;53291.88;5110618;28;20035;-75
2022/11/19 18:33:00;;;;;;;7.25;4.88;;;;;;;-140.72;100.00;53300.00;5099316;28;20049;-72
2022/11/19 18:35:26;;;;;;;10.77;6.25;;;;;;;-140.72;100.00;53297.97;5112334;28;20047;-73
2022/11/19 18:37:55;;;;;;;7.32;4.07;;;;;;;-140.72;100.00;53287.84;5103898;28;20036;-74
2022/11/19 18:40:20;;;;;;;6.63;4.03;;;;;;;-140.72;100.00;53302.03;5106491;28;20294;-74
2022/11/19 18:45:30;;;;;;;9.55;4.80;;;;;;;-140.72;100.00;53295.94;5107530;28;20131;-74
2022/11/19 18:47:56;;;;;;;6.55;3.53;;;;;;;-140.72;100.00;53330.44;5097451;28;20134;-74
2022/11/19 18:50:21;;;;;;;7.68;3.85;;;;;;;-140.72;100.00;53297.97;5091575;28;20474;-74
2022/11/19 18:52:47;;;;;;;8.63;5.00;;;;;;;-140.72;100.00;53308.13;5100228;28;20034;-74
2022/11/19 18:55:12;;;;;;;6.53;4.10;;;;;;;-140.72;100.00;53320.31;5112681;28;20024;-74
2022/11/19 18:57:38;;;;;;;14.60;5.93;;;;;;;-140.72;100.00;53285.81;5108626;28;20388;-74
2022/11/19 19:00:04;;;;;;;8.20;6.10;;;;;;;-140.72;100.00;53287.84;5111611;28;20029;-75
2022/11/19 19:02:30;;;;;;;7.55;4.45;;;;;;;-140.72;100.00;53279.72;5098464;28;20057;-73
2022/11/19 19:04:55;;;;;;;6.28;4.18;;;;;;;-140.72;100.00;53287.84;5101641;28;20032;-74
2022/11/19 19:07:20;;;;;;;8.15;5.05;;;;;;;-140.72;100.00;53340.59;5105135;28;20038;-77
2022/11/19 19:09:46;;;;;;;8.07;4.72;;;;;;;-140.72;100.00;53279.72;5094715;28;20044;-74
2022/11/19 19:12:17;;;;;;;7.93;4.85;;;;;;;-140.72;100.00;53277.69;5111782;28;20027;-74
2022/11/19 19:14:44;;;;;;;10.15;5.28;;;;;;;-140.72;100.00;53336.53;5098353;28;20030;-73
2022/11/19 19:17:11;;;;;;;8.52;4.78;;;;;;;-140.72;100.00;53300.00;5095351;28;20031;-74
2022/11/19 19:19:37;;;;;;;6.22;3.75;;;;;;;-140.72;100.00;53336.53;5103946;28;20133;-74
2022/11/19 19:22:03;;;;;;;11.77;5.63;;;;;;;-140.72;100.00;53275.66;5101326;28;20051;-73
2022/11/19 19:24:30;;;;;;;11.38;4.55;;;;;;;-140.72;100.00;53348.72;5107912;28;20475;-73
2022/11/19 19:26:58;;;;;;;8.98;4.78;;;;;;;-140.72;100.00;53310.16;5102232;28;20032;-74
2022/11/19 19:29:24;;;;;;;11.00;4.75;;;;;;;-140.72;100.00;53310.16;5104761;28;20081;-74
2022/11/19 19:31:49;;;;;;;9.25;4.90;;;;;;;-140.72;100.00;53334.50;5111226;28;20504;-76
2022/11/19 19:34:16;;;;;;;8.32;5.30;;;;;;;-140.72;100.00;53297.97;5108040;28;20080;-75
2022/11/19 19:36:41;;;;;;;8.65;5.03;;;;;;;-140.72;100.00;53291.88;5101212;28;20031;-74
2022/11/19 19:39:08;;;;;;;7.78;4.43;;;;;;;-140.72;100.00;53297.97;5106154;28;20527;-74
2022/11/19 19:41:33;;;;;;;8.80;4.93;;;;;;;-140.72;100.00;53283.78;5092115;28;20110;-74
2022/11/19 19:44:03;;;;;;;7.80;4.95;;;;;;;-140.72;100.00;53316.25;5107109;28;20047;-73
2022/11/19 19:46:30;;;;;;;5.70;4.18;;;;;;;-140.72;100.00;53324.38;5100202;28;20384;-73
2022/11/19 19:48:56;;;;;;;8.32;5.03;;;;;;;-140.72;100.00;53312.19;5093989;28;20036;-73
2022/11/19 19:51:24;;;;;;;11.23;4.78;;;;;;;-140.72;100.00;53304.06;5080285;28;20130;-75
2022/11/19 19:53:52;;;;;;;8.82;4.45;;;;;;;-140.72;100.00;53332.47;5105018;28;20026;-74
2022/11/19 19:56:24;;;;;;;7.57;4.55;;;;;;;-140.72;100.00;53312.19;5098995;28;20031;-76
2022/11/19 19:58:50;;;;;;;7.60;4.43;;;;;;;-140.72;100.00;53328.41;5095547;28;20024;-73
2022/11/19 20:01:24;;;;;;;8.43;4.97;;;;;;;-140.72;100.00;53340.59;5096112;28;20088;-74
2022/11/19 20:03:50;;;;;;;11.95;5.70;;;;;;;-140.72;100.00;53314.22;5097152;28;20027;-75
2022/11/19 20:06:18;;;;;;;6.38;4.93;;;;;;;-140.72;100.00;53334.50;5109488;28;20088;-73
2022/11/19 20:08:43;;;;;;;8.35;4.25;;;;;;;-140.72;100.00;53316.25;5096780;28;20024;-76
2022/11/19 20:11:11;;;;;;;10.00;5.25;;;;;;;-140.72;100.00;53324.38;5103304;28;20030;-72
2022/11/19 20:13:38;;;;;;;7.82;4.60;;;;;;;-140.72;100.00;53308.13;5104069;28;20501;-75
2022/11/19 20:16:10;;;;;;;6.78;5.22;;;;;;;-140.72;100.00;53332.47;5102300;28;20027;-73
2022/11/19 20:18:36;;;;;;;12.88;5.82;;;;;;;-140.72;100.00;53320.31;5093706;28;20035;-78
2022/11/19 20:21:07;;;;;;;26.83;13.45;;;;;;;-140.72;100.00;53304.06;5108728;28;20031;-79
2022/11/19 20:23:33;;;;;;;10.45;6.13;;;;;;;-140.72;100.00;53348.72;5107809;28;20032;-76
2022/11/19 20:26:00;;;;;;;10.40;5.90;;;;;;;-140.72;100.00;53364.97;5095378;28;20035;-74
2022/11/19 20:28:25;;;;;;;12.70;6.72;;;;;;;-140.72;100.00;53334.50;5071192;28;20039;-76
2022/11/19 20:30:51;;;;;;;9.88;5.07;;;;;;;-140.72;100.00;53340.59;5096629;28;20146;-74
2022/11/19 20:33:17;;;;;;;11.15;5.68;;;;;;;-140.72;100.00;53304.06;5109977;28;20088;-76
2022/11/19 20:35:51;;;;;;;8.32;4.43;;;;;;;-140.72;100.00;53289.88;5096578;28;20019;-75
2022/11/19 20:38:18;;;;;;;9.25;6.85;;;;;;;-140.72;100.00;53324.38;5108842;28;20354;-75
2022/11/19 20:41:00;;;;;;;9.65;6.68;;;;;;;-140.72;100.00;53314.22;5105369;28;20032;-74
2022/11/19 20:46:16;;;;;;;10.25;5.03;;;;;;;-140.72;100.00;53332.47;5103859;28;20413;-76
2022/11/19 20:48:42;;;;;;;8.80;5.45;;;;;;;-140.72;100.00;53314.22;5095256;28;20078;-76
2022/11/19 20:51:08;;;;;;;8.57;4.80;;;;;;;-140.72;100.00;53320.31;5109744;28;20461;-75
2022/11/19 20:53:34;;;;;;;10.38;5.55;;;;;;;-140.72;100.00;53381.19;5108688;28;20031;-74
2022/11/19 20:56:04;;;;;;;8.80;4.78;;;;;;;-140.72;100.00;53318.28;5095996;28;20024;-75
2022/11/19 20:58:29;;;;;;;11.05;6.38;;;;;;;-140.72;100.00;53324.38;5092224;28;20035;-74